This is the latest recevied weather packets stored in our database for station/object N6RDS. If no packets are shown the sender has not sent any weather packets the latest 10 day(s).
| Time | Temp. | Humidity | Pressure | Rain* | Wind** | Luminosity | Snow |
|---|---|---|---|---|---|---|---|
| 1777484061 | 18.89° C | 19% | 1026.4 hPa | 0 mm | - | 689 W/m² | - |
| 1777483758 | 18.89° C | 18% | 1026.5 hPa | 0 mm | - | 676 W/m² | - |
| 1777483454 | 17.78° C | 22% | 1026.5 hPa | 0 mm | - | 668 W/m² | - |
| 1777483149 | 17.78° C | 22% | 1026.4 hPa | 0 mm | - | 659 W/m² | - |
| 1777482846 | 16.67° C | 25% | 1026.5 hPa | 0 mm | - | 648 W/m² | - |
| 1777482542 | 16.11° C | 22% | 1026.5 hPa | 0 mm | - | 637 W/m² | - |
| 1777482239 | 17.22° C | 22% | 1026.6 hPa | 0 mm | - | 628 W/m² | - |
| 1777481936 | 17.22° C | 22% | 1026.5 hPa | 0 mm | - | 616 W/m² | - |
| 1777481634 | 16.67° C | 22% | 1026.5 hPa | 0 mm | - | 606 W/m² | - |
| 1777481331 | 15.56° C | 24% | 1026.6 hPa | 0 mm | - | 592 W/m² | - |
| 1777481028 | 15.56° C | 24% | 1026.8 hPa | 0 mm | - | 580 W/m² | - |
| 1777480724 | 16.67° C | 23% | 1026.8 hPa | 0 mm | - | 571 W/m² | - |
| 1777480421 | 16.67° C | 24% | 1026.6 hPa | 0 mm | - | 556 W/m² | - |
| 1777480117 | 15.56° C | 24% | 1026.5 hPa | 0 mm | - | 543 W/m² | - |
| 1777479813 | 16.11° C | 24% | 1026.6 hPa | 0 mm | - | 531 W/m² | - |
| 1777479511 | 15° C | 25% | 1026.9 hPa | 0 mm | - | 518 W/m² | - |
| 1777479208 | 14.44° C | 27% | 1026.8 hPa | 0 mm | - | 502 W/m² | - |
| 1777478904 | 15.56° C | 24% | 1026.8 hPa | 0 mm | - | 489 W/m² | - |
| 1777478601 | 15.56° C | 23% | 1026.9 hPa | 0 mm | - | 472 W/m² | - |
| 1777478298 | 13.89° C | 26% | 1026.8 hPa | 0 mm | - | 456 W/m² | - |
| 1777477995 | 14.44° C | 25% | 1026.6 hPa | 0 mm | - | 440 W/m² | - |
| 1777477689 | 13.89° C | 27% | 1026.9 hPa | 0 mm | - | 423 W/m² | - |
| 1777477386 | 13.33° C | 29% | 1027 hPa | 0 mm | - | 405 W/m² | - |
| 1777477077 | 13.89° C | 29% | 1026.9 hPa | 0 mm | - | 391 W/m² | - |
| 1777476775 | 13.33° C | 30% | 1026.8 hPa | 0 mm | - | 375 W/m² | - |
* Rain latest hour (hover to see other rain measurements)
** Current wind speed in m/s (hover to see current wind gust speed)